sensor_id;sensor_type;location;lat;lon;timestamp;pressure;altitude;pressure_sealevel;temperature;humidity
53619;BME280;39505;53.040;18.488;2023-03-14T00:00:06;99199.84;;;11.59;100.00
53619;BME280;39505;53.040;18.488;2023-03-14T00:00:40;99188.59;;;11.63;100.00
53619;BME280;39505;53.040;18.488;2023-03-14T00:01:10;99196.94;;;11.68;100.00
53619;BME280;39505;53.040;18.488;2023-03-14T00:01:24;99203.31;;;11.67;100.00
53619;BME280;39505;53.040;18.488;2023-03-14T00:01:37;99198.13;;;11.66;100.00
53619;BME280;39505;53.040;18.488;2023-03-14T00:01:49;99200.81;;;11.66;100.00
53619;BME280;39505;53.040;18.488;2023-03-14T00:02:02;99194.59;;;11.65;100.00
53619;BME280;39505;53.040;18.488;2023-03-14T00:02:15;99194.78;;;11.64;100.00
53619;BME280;39505;53.040;18.488;2023-03-14T00:02:28;99199.31;;;11.63;100.00
53619;BME280;39505;53.040;18.488;2023-03-14T00:02:41;99199.31;;;11.63;100.00
53619;BME280;39505;53.040;18.488;2023-03-14T00:02:54;99201.34;;;11.61;100.00
53619;BME280;39505;53.040;18.488;2023-03-14T00:03:07;99195.97;;;11.61;100.00
53619;BME280;39505;53.040;18.488;2023-03-14T00:03:19;99202.16;;;11.62;100.00
53619;BME280;39505;53.040;18.488;2023-03-14T00:03:32;99197.84;;;11.61;100.00
53619;BME280;39505;53.040;18.488;2023-03-14T00:03:46;99195.97;;;11.61;100.00
53619;BME280;39505;53.040;18.488;2023-03-14T00:03:58;99192.47;;;11.61;100.00
53619;BME280;39505;53.040;18.488;2023-03-14T00:04:11;99195.97;;;11.61;100.00
53619;BME280;39505;53.040;18.488;2023-03-14T00:04:24;99191.44;;;11.62;100.00
53619;BME280;39505;53.040;18.488;2023-03-14T00:04:37;99197.84;;;11.61;100.00
53619;BME280;39505;53.040;18.488;2023-03-14T00:04:49;99193.47;;;11.60;100.00
53619;BME280;39505;53.040;18.488;2023-03-14T00:05:04;99200.31;;;11.62;100.00
53619;BME280;39505;53.040;18.488;2023-03-14T00:05:19;99194.28;;;11.60;100.00
53619;BME280;39505;53.040;18.488;2023-03-14T00:05:33;99195.97;;;11.61;100.00
53619;BME280;39505;53.040;18.488;2023-03-14T00:05:46;99190.59;;;11.61;100.00
53619;BME280;39505;53.040;18.488;2023-03-14T00:06:02;99192.63;;;11.59;100.00
53619;BME280;39505;53.040;18.488;2023-03-14T00:06:15;99194.47;;;11.59;100.00
53619;BME280;39505;53.040;18.488;2023-03-14T00:06:29;99190.97;;;11.58;100.00
53619;BME280;39505;53.040;18.488;2023-03-14T00:06:41;99195.31;;;11.59;100.00
53619;BME280;39505;53.040;18.488;2023-03-14T00:06:54;99193.47;;;11.60;100.00
53619;BME280;39505;53.040;18.488;2023-03-14T00:07:06;99190.59;;;11.61;100.00
53619;BME280;39505;53.040;18.488;2023-03-14T00:07:19;99201.34;;;11.61;100.00
53619;BME280;39505;53.040;18.488;2023-03-14T00:07:32;99178.38;;;11.59;100.00
53619;BME280;39505;53.040;18.488;2023-03-14T00:07:47;99193.47;;;11.60;100.00
53619;BME280;39505;53.040;18.488;2023-03-14T00:07:59;99189.94;;;11.59;100.00
53619;BME280;39505;53.040;18.488;2023-03-14T00:08:12;99187.25;;;11.59;100.00
53619;BME280;39505;53.040;18.488;2023-03-14T00:08:26;99184.56;;;11.59;100.00
53619;BME280;39505;53.040;18.488;2023-03-14T00:08:39;99196.97;;;11.60;100.00
53619;BME280;39505;53.040;18.488;2023-03-14T00:08:53;99199.47;;;11.62;100.00
53619;BME280;39505;53.040;18.488;2023-03-14T00:09:06;99191.44;;;11.62;100.00
53619;BME280;39505;53.040;18.488;2023-03-14T00:09:19;99177.69;;;11.65;100.00
53619;BME280;39505;53.040;18.488;2023-03-14T00:09:31;99189.91;;;11.67;100.00
53619;BME280;39505;53.040;18.488;2023-03-14T00:09:44;99188.22;;;11.66;100.00
53619;BME280;39505;53.040;18.488;2023-03-14T00:09:56;99177.47;;;11.66;100.00
53619;BME280;39505;53.040;18.488;2023-03-14T00:10:11;99189.25;;;11.65;100.00
53619;BME280;39505;53.040;18.488;2023-03-14T00:10:25;99183.69;;;11.67;100.00
53619;BME280;39505;53.040;18.488;2023-03-14T00:10:39;99185.53;;;11.66;100.00
53619;BME280;39505;53.040;18.488;2023-03-14T00:10:51;99187.38;;;11.66;100.00
53619;BME280;39505;53.040;18.488;2023-03-14T00:11:06;99191.94;;;11.65;100.00
53619;BME280;39505;53.040;18.488;2023-03-14T00:11:20;99191.94;;;11.65;100.00
53619;BME280;39505;53.040;18.488;2023-03-14T00:11:33;99190.44;;;11.63;100.00
53619;BME280;39505;53.040;18.488;2023-03-14T00:11:46;99185.91;;;11.63;100.00
53619;BME280;39505;53.040;18.488;2023-03-14T00:11:59;99190.25;;;11.64;100.00
53619;BME280;39505;53.040;18.488;2023-03-14T00:12:12;99185.91;;;11.63;100.00
53619;BME280;39505;53.040;18.488;2023-03-14T00:12:27;99193.13;;;11.63;100.00
53619;BME280;39505;53.040;18.488;2023-03-14T00:12:40;99183.22;;;11.63;100.00
53619;BME280;39505;53.040;18.488;2023-03-14T00:12:52;99186.06;;;11.62;100.00
53619;BME280;39505;53.040;18.488;2023-03-14T00:13:05;99185.22;;;11.61;100.00
53619;BME280;39505;53.040;18.488;2023-03-14T00:13:18;99186.06;;;11.62;100.00
53619;BME280;39505;53.040;18.488;2023-03-14T00:13:30;99185.22;;;11.61;100.00
53619;BME280;39505;53.040;18.488;2023-03-14T00:13:46;99184.56;;;11.59;100.00
53619;BME280;39505;53.040;18.488;2023-03-14T00:13:59;99184.56;;;11.59;100.00
53619;BME280;39505;53.040;18.488;2023-03-14T00:14:12;99185.41;;;11.60;100.00
53619;BME280;39505;53.040;18.488;2023-03-14T00:14:25;99183.75;;;11.59;100.00
53619;BME280;39505;53.040;18.488;2023-03-14T00:14:37;99187.25;;;11.59;100.00
53619;BME280;39505;53.040;18.488;2023-03-14T00:14:50;99181.06;;;11.59;100.00
53619;BME280;39505;53.040;18.488;2023-03-14T00:15:04;99190.13;;;11.58;100.00
53619;BME280;39505;53.040;18.488;2023-03-14T00:15:19;99183.91;;;11.57;100.00
53619;BME280;39505;53.040;18.488;2023-03-14T00:15:32;99183.91;;;11.57;100.00
53619;BME280;39505;53.040;18.488;2023-03-14T00:15:45;99180.25;;;11.58;100.00
53619;BME280;39505;53.040;18.488;2023-03-14T00:16:02;99182.72;;;11.60;100.00
53619;BME280;39505;53.040;18.488;2023-03-14T00:16:15;99181.91;;;11.59;100.00
53619;BME280;39505;53.040;18.488;2023-03-14T00:16:29;99177.34;;;11.60;100.00
53619;BME280;39505;53.040;18.488;2023-03-14T00:16:41;99180.25;;;11.58;100.00
53619;BME280;39505;53.040;18.488;2023-03-14T00:16:54;99181.91;;;11.59;100.00
53619;BME280;39505;53.040;18.488;2023-03-14T00:17:06;99179.03;;;11.61;100.00
53619;BME280;39505;53.040;18.488;2023-03-14T00:17:19;99179.22;;;11.59;100.00
53619;BME280;39505;53.040;18.488;2023-03-14T00:17:31;99185.41;;;11.60;100.00
53619;BME280;39505;53.040;18.488;2023-03-14T00:17:44;99189.56;;;11.62;100.00
53619;BME280;39505;53.040;18.488;2023-03-14T00:17:57;99179.88;;;11.61;100.00
53619;BME280;39505;53.040;18.488;2023-03-14T00:18:10;99184.22;;;11.62;100.00
53619;BME280;39505;53.040;18.488;2023-03-14T00:18:23;99192.25;;;11.62;100.00
53619;BME280;39505;53.040;18.488;2023-03-14T00:18:37;99194.94;;;11.62;100.00
53619;BME280;39505;53.040;18.488;2023-03-14T00:18:49;99181.72;;;11.61;100.00
53619;BME280;39505;53.040;18.488;2023-03-14T00:19:02;99189.78;;;11.61;100.00
53619;BME280;39505;53.040;18.488;2023-03-14T00:19:15;99193.28;;;11.61;100.00
53619;BME280;39505;53.040;18.488;2023-03-14T00:19:28;99187.91;;;11.61;100.00
53619;BME280;39505;53.040;18.488;2023-03-14T00:19:42;99189.94;;;11.59;100.00
53619;BME280;39505;53.040;18.488;2023-03-14T00:19:54;99185.59;;;11.58;100.00
53619;BME280;39505;53.040;18.488;2023-03-14T00:20:08;99182.91;;;11.58;100.00
53619;BME280;39505;53.040;18.488;2023-03-14T00:20:21;99185.59;;;11.58;100.00
53619;BME280;39505;53.040;18.488;2023-03-14T00:20:35;99185.59;;;11.58;100.00
53619;BME280;39505;53.040;18.488;2023-03-14T00:20:48;99186.59;;;11.57;100.00
53619;BME280;39505;53.040;18.488;2023-03-14T00:21:03;99189.28;;;11.57;100.00
53619;BME280;39505;53.040;18.488;2023-03-14T00:21:16;99190.97;;;11.58;100.00
53619;BME280;39505;53.040;18.488;2023-03-14T00:21:29;99189.28;;;11.57;100.00
53619;BME280;39505;53.040;18.488;2023-03-14T00:21:42;99192.63;;;11.59;100.00
53619;BME280;39505;53.040;18.488;2023-03-14T00:21:54;99188.91;;;11.60;100.00
53619;BME280;39505;53.040;18.488;2023-03-14T00:22:08;99185.59;;;11.58;100.00
53619;BME280;39505;53.040;18.488;2023-03-14T00:22:21;99187.44;;;11.58;100.00
53619;BME280;39505;53.040;18.488;2023-03-14T00:22:34;99190.97;;;11.58;100.00
53619;BME280;39505;53.040;18.488;2023-03-14T00:22:47;99203.53;;;11.58;100.00
53619;BME280;39505;53.040;18.488;2023-03-14T00:22:59;99191.81;;;11.59;100.00
53619;BME280;39505;53.040;18.488;2023-03-14T00:23:12;99182.06;;;11.58;100.00
53619;BME280;39505;53.040;18.488;2023-03-14T00:23:25;99196.34;;;11.58;100.00
53619;BME280;39505;53.040;18.488;2023-03-14T00:23:41;99185.78;;;11.57;100.00
53619;BME280;39505;53.040;18.488;2023-03-14T00:23:53;99184.94;;;11.56;100.00
53619;BME280;39505;53.040;18.488;2023-03-14T00:24:07;99191.31;;;11.55;100.00
53619;BME280;39505;53.040;18.488;2023-03-14T00:24:19;99193.00;;;11.56;100.00
53619;BME280;39505;53.040;18.488;2023-03-14T00:24:32;99186.78;;;11.56;100.00
53619;BME280;39505;53.040;18.488;2023-03-14T00:24:45;99192.13;;;11.56;100.00
53619;BME280;39505;53.040;18.488;2023-03-14T00:24:58;99190.31;;;11.56;100.00
53619;BME280;39505;53.040;18.488;2023-03-14T00:25:11;99192.13;;;11.56;100.00
53619;BME280;39505;53.040;18.488;2023-03-14T00:25:24;99191.31;;;11.55;100.00
53619;BME280;39505;53.040;18.488;2023-03-14T00:25:37;99190.47;;;11.55;100.00
53619;BME280;39505;53.040;18.488;2023-03-14T00:25:49;99180.56;;;11.55;100.00
53619;BME280;39505;53.040;18.488;2023-03-14T00:26:04;99192.13;;;11.56;100.00
53619;BME280;39505;53.040;18.488;2023-03-14T00:26:20;99193.00;;;11.56;100.00
53619;BME280;39505;53.040;18.488;2023-03-14T00:26:33;99187.63;;;11.56;100.00
53619;BME280;39505;53.040;18.488;2023-03-14T00:26:46;99186.78;;;11.56;100.00
53619;BME280;39505;53.040;18.488;2023-03-14T00:26:58;99186.59;;;11.57;100.00
53619;BME280;39505;53.040;18.488;2023-03-14T00:27:12;99188.47;;;11.57;100.00
53619;BME280;39505;53.040;18.488;2023-03-14T00:27:25;99181.22;;;11.57;100.00
53619;BME280;39505;53.040;18.488;2023-03-14T00:27:37;99186.78;;;11.56;100.00
53619;BME280;39505;53.040;18.488;2023-03-14T00:27:50;99193.00;;;11.56;100.00
53619;BME280;39505;53.040;18.488;2023-03-14T00:28:04;99191.97;;;11.57;100.00
53619;BME280;39505;53.040;18.488;2023-03-14T00:28:16;99186.78;;;11.56;100.00
53619;BME280;39505;53.040;18.488;2023-03-14T00:28:30;99184.94;;;11.56;100.00
53619;BME280;39505;53.040;18.488;2023-03-14T00:28:43;99184.94;;;11.56;100.00
53619;BME280;39505;53.040;18.488;2023-03-14T00:28:56;99189.28;;;11.57;100.00
53619;BME280;39505;53.040;18.488;2023-03-14T00:29:09;99187.63;;;11.56;100.00
53619;BME280;39505;53.040;18.488;2023-03-14T00:29:21;99179.56;;;11.56;100.00
53619;BME280;39505;53.040;18.488;2023-03-14T00:29:34;99175.22;;;11.55;100.00
53619;BME280;39505;53.040;18.488;2023-03-14T00:29:47;99181.41;;;11.56;100.00
53619;BME280;39505;53.040;18.488;2023-03-14T00:30:00;99184.94;;;11.56;100.00
53619;BME280;39505;53.040;18.488;2023-03-14T00:30:13;99175.22;;;11.55;100.00
53619;BME280;39505;53.040;18.488;2023-03-14T00:30:26;99186.59;;;11.57;100.00
53619;BME280;39505;53.040;18.488;2023-03-14T00:30:39;99182.25;;;11.56;100.00
53619;BME280;39505;53.040;18.488;2023-03-14T00:30:51;99177.72;;;11.57;100.00
53619;BME280;39505;53.040;18.488;2023-03-14T00:31:06;99184.94;;;11.56;100.00
53619;BME280;39505;53.040;18.488;2023-03-14T00:31:19;99180.56;;;11.55;100.00
53619;BME280;39505;53.040;18.488;2023-03-14T00:31:33;99167.97;;;11.56;100.00
53619;BME280;39505;53.040;18.488;2023-03-14T00:31:48;99180.56;;;11.55;100.00
53619;BME280;39505;53.040;18.488;2023-03-14T00:32:00;99169.66;;;11.57;100.00
53619;BME280;39505;53.040;18.488;2023-03-14T00:32:13;99175.22;;;11.55;100.00
53619;BME280;39505;53.040;18.488;2023-03-14T00:32:26;99174.22;;;11.56;100.00
53619;BME280;39505;53.040;18.488;2023-03-14T00:32:38;99183.09;;;11.57;100.00
53619;BME280;39505;53.040;18.488;2023-03-14T00:32:52;99182.25;;;11.56;100.00
53619;BME280;39505;53.040;18.488;2023-03-14T00:33:05;99178.72;;;11.56;100.00
53619;BME280;39505;53.040;18.488;2023-03-14T00:33:17;99177.06;;;11.55;100.00
53619;BME280;39505;53.040;18.488;2023-03-14T00:33:30;99179.56;;;11.56;100.00
53619;BME280;39505;53.040;18.488;2023-03-14T00:33:44;99187.63;;;11.56;100.00
53619;BME280;39505;53.040;18.488;2023-03-14T00:33:58;99175.22;;;11.55;100.00
53619;BME280;39505;53.040;18.488;2023-03-14T00:34:10;99178.53;;;11.57;100.00
53619;BME280;39505;53.040;18.488;2023-03-14T00:34:23;99176.91;;;11.56;100.00
53619;BME280;39505;53.040;18.488;2023-03-14T00:34:36;99182.25;;;11.56;100.00
53619;BME280;39505;53.040;18.488;2023-03-14T00:34:48;99181.41;;;11.56;100.00
53619;BME280;39505;53.040;18.488;2023-03-14T00:35:01;99185.78;;;11.57;100.00
53619;BME280;39505;53.040;18.488;2023-03-14T00:35:15;99184.94;;;11.56;100.00
53619;BME280;39505;53.040;18.488;2023-03-14T00:35:29;99180.56;;;11.55;100.00
53619;BME280;39505;53.040;18.488;2023-03-14T00:35:43;99176.03;;;11.56;100.00
53619;BME280;39505;53.040;18.488;2023-03-14T00:35:57;99185.78;;;11.57;100.00
53619;BME280;39505;53.040;18.488;2023-03-14T00:36:12;99179.56;;;11.56;100.00
53619;BME280;39505;53.040;18.488;2023-03-14T00:36:25;99181.41;;;11.56;100.00
53619;BME280;39505;53.040;18.488;2023-03-14T00:36:37;99186.59;;;11.57;100.00
53619;BME280;39505;53.040;18.488;2023-03-14T00:36:51;99178.53;;;11.57;100.00
53619;BME280;39505;53.040;18.488;2023-03-14T00:37:04;99180.25;;;11.58;100.00
53619;BME280;39505;53.040;18.488;2023-03-14T00:37:16;99188.47;;;11.57;100.00
53619;BME280;39505;53.040;18.488;2023-03-14T00:37:29;99178.72;;;11.56;100.00
53619;BME280;39505;53.040;18.488;2023-03-14T00:37:42;99187.44;;;11.58;100.00
53619;BME280;39505;53.040;18.488;2023-03-14T00:37:55;99175.88;;;11.57;100.00
53619;BME280;39505;53.040;18.488;2023-03-14T00:38:07;99173.84;;;11.59;100.00
53619;BME280;39505;53.040;18.488;2023-03-14T00:38:20;99173.19;;;11.57;100.00
53619;BME280;39505;53.040;18.488;2023-03-14T00:38:34;99172.19;;;11.58;100.00
53619;BME280;39505;53.040;18.488;2023-03-14T00:38:48;99174.00;;;11.58;100.00
53619;BME280;39505;53.040;18.488;2023-03-14T00:39:01;99174.00;;;11.58;100.00
53619;BME280;39505;53.040;18.488;2023-03-14T00:39:13;99176.16;;;11.62;100.00
53619;BME280;39505;53.040;18.488;2023-03-14T00:39:26;99187.38;;;11.66;100.00
53619;BME280;39505;53.040;18.488;2023-03-14T00:39:39;99173.97;;;11.66;100.00
53619;BME280;39505;53.040;18.488;2023-03-14T00:39:53;99178.50;;;11.65;100.00
53619;BME280;39505;53.040;18.488;2023-03-14T00:40:08;99181.19;;;11.65;100.00
53619;BME280;39505;53.040;18.488;2023-03-14T00:40:21;99174.78;;;11.66;100.00
53619;BME280;39505;53.040;18.488;2023-03-14T00:40:33;99170.44;;;11.65;100.00
53619;BME280;39505;53.040;18.488;2023-03-14T00:40:46;99184.69;;;11.66;100.00
53619;BME280;39505;53.040;18.488;2023-03-14T00:41:03;99181.19;;;11.65;100.00
53619;BME280;39505;53.040;18.488;2023-03-14T00:41:17;99180.38;;;11.65;100.00
53619;BME280;39505;53.040;18.488;2023-03-14T00:41:30;99177.84;;;11.63;100.00
53619;BME280;39505;53.040;18.488;2023-03-14T00:41:43;99185.34;;;11.68;100.00
53619;BME280;39505;53.040;18.488;2023-03-14T00:41:56;99180.16;;;11.66;100.00
53619;BME280;39505;53.040;18.488;2023-03-14T00:42:08;99177.47;;;11.66;100.00
53619;BME280;39505;53.040;18.488;2023-03-14T00:42:22;99187.38;;;11.66;100.00
53619;BME280;39505;53.040;18.488;2023-03-14T00:42:35;99171.44;;;11.64;100.00
53619;BME280;39505;53.040;18.488;2023-03-14T00:42:47;99175.81;;;11.65;100.00
53619;BME280;39505;53.040;18.488;2023-03-14T00:43:00;99186.56;;;11.65;100.00
53619;BME280;39505;53.040;18.488;2023-03-14T00:43:12;99179.50;;;11.64;100.00
53619;BME280;39505;53.040;18.488;2023-03-14T00:43:25;99190.06;;;11.66;100.00
53619;BME280;39505;53.040;18.488;2023-03-14T00:43:38;99187.88;;;11.69;100.00
53619;BME280;39505;53.040;18.488;2023-03-14T00:43:51;99185.47;;;11.75;100.00
53619;BME280;39505;53.040;18.488;2023-03-14T00:44:05;99187.50;;;11.73;100.00
53619;BME280;39505;53.040;18.488;2023-03-14T00:44:17;99193.91;;;11.72;100.00
53619;BME280;39505;53.040;18.488;2023-03-14T00:44:30;99184.81;;;11.73;100.00
53619;BME280;39505;53.040;18.488;2023-03-14T00:44:44;99181.97;;;11.74;100.00
53619;BME280;39505;53.040;18.488;2023-03-14T00:44:56;99180.47;;;11.72;100.00
53619;BME280;39505;53.040;18.488;2023-03-14T00:45:10;99183.34;;;11.70;100.00
53619;BME280;39505;53.040;18.488;2023-03-14T00:45:23;99197.59;;;11.70;100.00
53619;BME280;39505;53.040;18.488;2023-03-14T00:45:36;99192.38;;;11.69;100.00
53619;BME280;39505;53.040;18.488;2023-03-14T00:45:49;99188.88;;;11.68;100.00
53619;BME280;39505;53.040;18.488;2023-03-14T00:46:02;99189.06;;;11.67;100.00
53619;BME280;39505;53.040;18.488;2023-03-14T00:46:15;99189.91;;;11.67;100.00
53619;BME280;39505;53.040;18.488;2023-03-14T00:46:28;99194.44;;;11.67;100.00
53619;BME280;39505;53.040;18.488;2023-03-14T00:46:41;99188.22;;;11.66;100.00
53619;BME280;39505;53.040;18.488;2023-03-14T00:46:54;99193.59;;;11.66;100.00
53619;BME280;39505;53.040;18.488;2023-03-14T00:47:07;99188.22;;;11.66;100.00
53619;BME280;39505;53.040;18.488;2023-03-14T00:47:20;99181.19;;;11.65;100.00
53619;BME280;39505;53.040;18.488;2023-03-14T00:47:32;99177.47;;;11.66;100.00
53619;BME280;39505;53.040;18.488;2023-03-14T00:47:45;99183.88;;;11.65;100.00
53619;BME280;39505;53.040;18.488;2023-03-14T00:47:58;99184.88;;;11.64;100.00
53619;BME280;39505;53.040;18.488;2023-03-14T00:48:11;99193.94;;;11.63;100.00
53619;BME280;39505;53.040;18.488;2023-03-14T00:48:25;99186.56;;;11.65;100.00
53619;BME280;39505;53.040;18.488;2023-03-14T00:48:38;99184.88;;;11.64;100.00
53619;BME280;39505;53.040;18.488;2023-03-14T00:48:51;99184.88;;;11.64;100.00
53619;BME280;39505;53.040;18.488;2023-03-14T00:49:04;99176.00;;;11.64;100.00
53619;BME280;39505;53.040;18.488;2023-03-14T00:49:17;99177.00;;;11.63;100.00
53619;BME280;39505;53.040;18.488;2023-03-14T00:49:29;99182.19;;;11.64;100.00
53619;BME280;39505;53.040;18.488;2023-03-14T00:49:43;99177.00;;;11.63;100.00
53619;BME280;39505;53.040;18.488;2023-03-14T00:49:55;99184.22;;;11.62;100.00
53619;BME280;39505;53.040;18.488;2023-03-14T00:50:10;99177.84;;;11.63;100.00
53619;BME280;39505;53.040;18.488;2023-03-14T00:50:23;99185.06;;;11.63;100.00
53619;BME280;39505;53.040;18.488;2023-03-14T00:50:35;99181.34;;;11.64;100.00
53619;BME280;39505;53.040;18.488;2023-03-14T00:50:49;99183.38;;;11.62;100.00
53619;BME280;39505;53.040;18.488;2023-03-14T00:51:03;99185.06;;;11.63;100.00
53619;BME280;39505;53.040;18.488;2023-03-14T00:51:18;99186.91;;;11.62;100.00
53619;BME280;39505;53.040;18.488;2023-03-14T00:51:30;99180.69;;;11.62;100.00
53619;BME280;39505;53.040;18.488;2023-03-14T00:51:43;99179.88;;;11.61;100.00
53619;BME280;39505;53.040;18.488;2023-03-14T00:51:56;99179.03;;;11.61;100.00
53619;BME280;39505;53.040;18.488;2023-03-14T00:52:09;99173.84;;;11.59;100.00
53619;BME280;39505;53.040;18.488;2023-03-14T00:52:21;99182.72;;;11.60;100.00
53619;BME280;39505;53.040;18.488;2023-03-14T00:52:34;99183.56;;;11.60;100.00
53619;BME280;39505;53.040;18.488;2023-03-14T00:52:48;99171.16;;;11.59;100.00
53619;BME280;39505;53.040;18.488;2023-03-14T00:53:01;99176.53;;;11.59;100.00
53619;BME280;39505;53.040;18.488;2023-03-14T00:53:13;99173.84;;;11.59;100.00
53619;BME280;39505;53.040;18.488;2023-03-14T00:53:26;99176.53;;;11.59;100.00
53619;BME280;39505;53.040;18.488;2023-03-14T00:53:39;99172.19;;;11.58;100.00
53619;BME280;39505;53.040;18.488;2023-03-14T00:53:52;99175.69;;;11.59;100.00
53619;BME280;39505;53.040;18.488;2023-03-14T00:54:05;99175.88;;;11.57;100.00
53619;BME280;39505;53.040;18.488;2023-03-14T00:54:20;99171.16;;;11.59;100.00
53619;BME280;39505;53.040;18.488;2023-03-14T00:54:33;99165.78;;;11.59;100.00
53619;BME280;39505;53.040;18.488;2023-03-14T00:54:45;99171.16;;;11.59;100.00
53619;BME280;39505;53.040;18.488;2023-03-14T00:54:58;99173.00;;;11.59;100.00
53619;BME280;39505;53.040;18.488;2023-03-14T00:55:11;99164.13;;;11.58;100.00
53619;BME280;39505;53.040;18.488;2023-03-14T00:55:24;99170.34;;;11.59;100.00
53619;BME280;39505;53.040;18.488;2023-03-14T00:55:37;99177.56;;;11.58;100.00
53619;BME280;39505;53.040;18.488;2023-03-14T00:55:51;99177.72;;;11.57;100.00
53619;BME280;39505;53.040;18.488;2023-03-14T00:56:04;99172.81;;;11.60;100.00
53619;BME280;39505;53.040;18.488;2023-03-14T00:56:18;99164.97;;;11.59;100.00
53619;BME280;39505;53.040;18.488;2023-03-14T00:56:30;99166.63;;;11.60;100.00
53619;BME280;39505;53.040;18.488;2023-03-14T00:56:43;99165.78;;;11.59;100.00
53619;BME280;39505;53.040;18.488;2023-03-14T00:56:56;99160.59;;;11.58;100.00
53619;BME280;39505;53.040;18.488;2023-03-14T00:57:08;99164.97;;;11.59;100.00
53619;BME280;39505;53.040;18.488;2023-03-14T00:57:22;99159.59;;;11.59;100.00
53619;BME280;39505;53.040;18.488;2023-03-14T00:57:35;99161.63;;;11.57;100.00
53619;BME280;39505;53.040;18.488;2023-03-14T00:57:47;99166.97;;;11.57;100.00
53619;BME280;39505;53.040;18.488;2023-03-14T00:58:00;99172.19;;;11.58;100.00
53619;BME280;39505;53.040;18.488;2023-03-14T00:58:14;99170.34;;;11.59;100.00
53619;BME280;39505;53.040;18.488;2023-03-14T00:58:27;99168.63;;;11.58;100.00
53619;BME280;39505;53.040;18.488;2023-03-14T00:58:40;99170.34;;;11.59;100.00
53619;BME280;39505;53.040;18.488;2023-03-14T00:58:54;99168.63;;;11.58;100.00
53619;BME280;39505;53.040;18.488;2023-03-14T00:59:07;99167.81;;;11.57;100.00
53619;BME280;39505;53.040;18.488;2023-03-14T00:59:20;99169.66;;;11.57;100.00
53619;BME280;39505;53.040;18.488;2023-03-14T00:59:33;99157.91;;;11.58;100.00
53619;BME280;39505;53.040;18.488;2023-03-14T00:59:46;99159.59;;;11.59;100.00
53619;BME280;39505;53.040;18.488;2023-03-14T00:59:58;99158.94;;;11.57;100.00
53619;BME280;39505;53.040;18.488;2023-03-14T01:00:13;99166.97;;;11.57;100.00
53619;BME280;39505;53.040;18.488;2023-03-14T01:00:26;99163.28;;;11.58;100.00
53619;BME280;39505;53.040;18.488;2023-03-14T01:00:38;99169.00;;;11.55;100.00
53619;BME280;39505;53.040;18.488;2023-03-14T01:00:51;99166.97;;;11.57;100.00
53619;BME280;39505;53.040;18.488;2023-03-14T01:01:07;99163.47;;;11.56;100.00
53619;BME280;39505;53.040;18.488;2023-03-14T01:01:20;99160.78;;;11.56;100.00
53619;BME280;39505;53.040;18.488;2023-03-14T01:01:33;99154.56;;;11.56;100.00
53619;BME280;39505;53.040;18.488;2023-03-14T01:01:47;99154.56;;;11.56;100.00
53619;BME280;39505;53.040;18.488;2023-03-14T01:01:59;99153.72;;;11.55;100.00
53619;BME280;39505;53.040;18.488;2023-03-14T01:02:12;99154.41;;;11.57;100.00
53619;BME280;39505;53.040;18.488;2023-03-14T01:02:25;99158.09;;;11.56;100.00
53619;BME280;39505;53.040;18.488;2023-03-14T01:02:38;99159.09;;;11.55;100.00
53619;BME280;39505;53.040;18.488;2023-03-14T01:02:50;99151.53;;;11.59;100.00
53619;BME280;39505;53.040;18.488;2023-03-14T01:03:04;99167.66;;;11.59;100.00
53619;BME280;39505;53.040;18.488;2023-03-14T01:03:18;99156.91;;;11.59;100.00
53619;BME280;39505;53.040;18.488;2023-03-14T01:03:31;99153.41;;;11.58;100.00
53619;BME280;39505;53.040;18.488;2023-03-14T01:03:44;99154.41;;;11.57;100.00
53619;BME280;39505;53.040;18.488;2023-03-14T01:03:57;99169.50;;;11.58;100.00
53619;BME280;39505;53.040;18.488;2023-03-14T01:04:10;99157.06;;;11.57;100.00
53619;BME280;39505;53.040;18.488;2023-03-14T01:04:23;99157.06;;;11.57;100.00
53619;BME280;39505;53.040;18.488;2023-03-14T01:04:36;99152.75;;;11.56;100.00
53619;BME280;39505;53.040;18.488;2023-03-14T01:04:49;99151.88;;;11.56;100.00
53619;BME280;39505;53.040;18.488;2023-03-14T01:05:02;99149.19;;;11.56;100.00
53619;BME280;39505;53.040;18.488;2023-03-14T01:05:16;99159.09;;;11.55;100.00
53619;BME280;39505;53.040;18.488;2023-03-14T01:05:29;99159.09;;;11.55;100.00
53619;BME280;39505;53.040;18.488;2023-03-14T01:05:42;99160.13;;;11.54;100.00
53619;BME280;39505;53.040;18.488;2023-03-14T01:06:06;99155.41;;;11.56;100.00
53619;BME280;39505;53.040;18.488;2023-03-14T01:06:21;99149.19;;;11.56;100.00
53619;BME280;39505;53.040;18.488;2023-03-14T01:06:34;99160.78;;;11.56;100.00
53619;BME280;39505;53.040;18.488;2023-03-14T01:06:47;99164.47;;;11.55;100.00
53619;BME280;39505;53.040;18.488;2023-03-14T01:06:59;99164.47;;;11.55;100.00
53619;BME280;39505;53.040;18.488;2023-03-14T01:07:13;99151.22;;;11.54;100.00
53619;BME280;39505;53.040;18.488;2023-03-14T01:07:26;99161.94;;;11.54;100.00
53619;BME280;39505;53.040;18.488;2023-03-14T01:07:38;99152.09;;;11.54;100.00
53619;BME280;39505;53.040;18.488;2023-03-14T01:07:51;99153.91;;;11.54;100.00
53619;BME280;39505;53.040;18.488;2023-03-14T01:08:04;99152.91;;;11.55;100.00
53619;BME280;39505;53.040;18.488;2023-03-14T01:08:17;99152.09;;;11.54;100.00
53619;BME280;39505;53.040;18.488;2023-03-14T01:08:30;99147.72;;;11.53;100.00
53619;BME280;39505;53.040;18.488;2023-03-14T01:08:44;99168.19;;;11.54;100.00